Gallup Mills, Vermont
Current Conditions -  °F | °C
As of 5:55 PM on Wednesday 22 Oct 2014 (Local Time) from KCDA Reporting Station
Overcast Overcast  
Wind Chill: 10°   Ceiling: 6500
Heat Index: 10°   Visibility: 10mi
Dew Point:   Wind: 12mph
Humidity: 60%   Direction: 360°N
Pressure: 30.13"   Gusts: 20mph
Location:  44.5627°N, 71.7775°W
Report Text: KCDA 222155Z AUTO 36010G17KT 10SM SCT039 BKN065 OVC100 10/03 A3013 RMK AO2 T01020027
Loading
Personal Weather Stations






























Interactive Weather Map
Tropical Storm Tracking
New forecast layout! Learn more

10-Day Weather Forecast

Advertisements
Track Severe Weather on mobile